createdAt,value
2023-01-13T00:00:48.235Z,64.46
2023-01-13T00:03:15.590Z,64.19
2023-01-13T00:05:42.354Z,63.68
2023-01-13T00:08:09.009Z,63.93
2023-01-13T00:10:35.897Z,64.64
2023-01-13T00:13:03.332Z,65.09
2023-01-13T00:15:30.812Z,65.43
2023-01-13T00:17:57.426Z,65.01
2023-01-13T00:20:24.060Z,65.21
2023-01-13T00:22:50.692Z,64.70
2023-01-13T00:25:17.487Z,65.24
2023-01-13T00:27:44.185Z,63.74
2023-01-13T00:30:11.196Z,64.15
2023-01-13T00:32:37.833Z,65.17
2023-01-13T00:35:04.736Z,64.86
2023-01-13T00:37:31.380Z,65.15
2023-01-13T00:39:58.015Z,64.86
2023-01-13T00:42:24.644Z,64.46
2023-01-13T00:44:51.280Z,64.76
2023-01-13T00:47:17.952Z,64.85
2023-01-13T00:49:44.692Z,65.40
2023-01-13T00:52:14.224Z,65.56
2023-01-13T00:54:40.847Z,65.78
2023-01-13T00:57:07.446Z,66.34
2023-01-13T00:59:34.075Z,66.84
2023-01-13T01:02:00.888Z,65.95
2023-01-13T01:04:27.580Z,65.38
2023-01-13T01:06:54.224Z,65.10
2023-01-13T01:09:20.849Z,64.94
2023-01-13T01:11:47.464Z,65.51
2023-01-13T01:14:14.138Z,65.55
2023-01-13T01:16:41.082Z,66.13
2023-01-13T01:19:07.800Z,65.78
2023-01-13T01:21:34.514Z,65.47
2023-01-13T01:24:01.796Z,65.22
2023-01-13T01:26:28.942Z,64.90
2023-01-13T01:28:55.592Z,64.75
2023-01-13T01:31:26.626Z,65.30
2023-01-13T01:33:53.966Z,64.64
2023-01-13T01:36:21.529Z,64.85
2023-01-13T01:38:48.424Z,65.27
2023-01-13T01:41:17.176Z,65.79
2023-01-13T01:43:57.612Z,65.47
2023-01-13T01:46:24.307Z,65.55
2023-01-13T01:48:50.947Z,65.51
2023-01-13T01:51:17.564Z,65.33
2023-01-13T01:53:44.175Z,65.06
2023-01-13T01:56:10.796Z,66.09
2023-01-13T01:58:43.770Z,66.48
2023-01-13T02:01:10.468Z,66.73
2023-01-13T02:03:37.535Z,66.63
2023-01-13T02:06:04.247Z,66.83
2023-01-13T02:08:30.870Z,66.79
2023-01-13T02:10:57.486Z,66.87
2023-01-13T02:13:24.164Z,66.69
2023-01-13T02:16:14.839Z,66.30
2023-01-13T02:18:55.942Z,66.43
2023-01-13T02:21:49.062Z,66.56
2023-01-13T02:24:22.180Z,66.20
2023-01-13T02:26:57.733Z,66.02
2023-01-13T02:29:37.976Z,66.44
2023-01-13T02:32:26.279Z,65.67
2023-01-13T02:35:08.291Z,65.88
2023-01-13T02:37:37.010Z,65.46
2023-01-13T02:40:10.092Z,66.04
2023-01-13T02:42:40.171Z,66.59
2023-01-13T02:45:13.048Z,66.78
2023-01-13T02:47:39.745Z,66.88
2023-01-13T02:50:11.309Z,67.39
2023-01-13T02:52:46.433Z,68.46
2023-01-13T02:55:15.849Z,68.99
2023-01-13T02:57:42.497Z,69.06
2023-01-13T03:00:09.716Z,68.27
2023-01-13T03:02:36.398Z,68.15
2023-01-13T03:05:03.090Z,67.12
2023-01-13T03:08:06.602Z,67.05
2023-01-13T03:10:47.335Z,66.06
2023-01-13T03:13:35.630Z,66.23
2023-01-13T03:16:07.972Z,66.76
2023-01-13T03:18:52.858Z,66.64
2023-01-13T03:21:32.621Z,65.92
2023-01-13T03:24:19.333Z,65.68
2023-01-13T03:26:51.686Z,65.72
2023-01-13T03:29:22.685Z,65.41
2023-01-13T03:32:12.522Z,65.42
2023-01-13T03:34:43.697Z,64.59
2023-01-13T03:37:10.362Z,62.76
2023-01-13T03:39:38.636Z,63.48
2023-01-13T03:42:08.345Z,63.79
2023-01-13T03:44:44.368Z,63.25
2023-01-13T03:47:34.136Z,63.15
2023-01-13T03:50:11.715Z,64.38
2023-01-13T03:52:42.411Z,65.30
2023-01-13T03:55:14.139Z,65.45
2023-01-13T03:57:57.112Z,65.52
2023-01-13T04:00:29.254Z,66.03
2023-01-13T04:03:07.295Z,66.93
2023-01-13T04:05:34.246Z,66.04
2023-01-13T04:08:12.571Z,65.17
2023-01-13T04:10:46.071Z,63.73
2023-01-13T04:13:15.425Z,64.22
2023-01-13T04:15:45.628Z,64.04
2023-01-13T04:18:26.064Z,63.29
2023-01-13T04:20:53.947Z,62.91
2023-01-13T04:23:20.975Z,62.84
2023-01-13T04:25:47.622Z,62.69
2023-01-13T04:28:14.516Z,63.49
2023-01-13T04:30:41.438Z,63.22
2023-01-13T04:33:08.158Z,63.89
2023-01-13T04:35:34.882Z,63.96
2023-01-13T04:38:02.575Z,64.59
2023-01-13T04:40:29.211Z,65.29
2023-01-13T04:42:55.832Z,64.58
2023-01-13T04:45:22.487Z,64.58
2023-01-13T04:47:49.144Z,64.81
2023-01-13T04:50:16.148Z,65.59
2023-01-13T04:52:42.806Z,65.57
2023-01-13T04:55:09.670Z,65.24
2023-01-13T04:57:36.325Z,66.19
2023-01-13T05:00:04.150Z,66.18
2023-01-13T05:02:30.779Z,66.25
2023-01-13T05:04:57.499Z,66.55
2023-01-13T05:07:24.284Z,67.63
2023-01-13T05:09:50.920Z,67.98
2023-01-13T05:12:17.585Z,67.32
2023-01-13T05:14:44.259Z,67.45
2023-01-13T05:17:12.329Z,67.37
2023-01-13T05:19:39.001Z,67.01
2023-01-13T05:22:05.639Z,67.68
2023-01-13T05:24:32.269Z,68.22
2023-01-13T05:26:59.098Z,68.21
2023-01-13T05:29:25.757Z,68.22
2023-01-13T05:31:52.420Z,67.80
2023-01-13T05:34:19.065Z,67.55
2023-01-13T05:36:45.737Z,66.70
2023-01-13T05:39:12.378Z,66.33
2023-01-13T05:41:39.000Z,67.25
2023-01-13T05:44:05.636Z,66.54
2023-01-13T05:46:32.330Z,66.42
2023-01-13T05:48:59.007Z,65.43
2023-01-13T05:51:25.641Z,64.80
2023-01-13T05:53:52.378Z,65.92
2023-01-13T05:56:19.008Z,65.18
2023-01-13T05:58:45.678Z,65.28
2023-01-13T06:01:12.444Z,65.64
2023-01-13T06:03:39.142Z,64.74
2023-01-13T06:06:05.813Z,64.28
2023-01-13T06:08:32.494Z,65.10
2023-01-13T06:10:59.156Z,65.37
2023-01-13T06:13:25.820Z,66.13
2023-01-13T06:15:56.122Z,67.13
2023-01-13T06:18:22.814Z,67.55
2023-01-13T06:20:49.458Z,67.87
2023-01-13T06:23:16.066Z,68.60
2023-01-13T06:25:44.820Z,69.10
2023-01-13T06:28:11.498Z,69.71
2023-01-13T06:30:47.347Z,69.66
2023-01-13T06:33:15.547Z,70.41
2023-01-13T06:35:44.625Z,70.88
2023-01-13T06:38:12.178Z,70.35
2023-01-13T06:40:38.874Z,70.68
2023-01-13T06:43:05.563Z,70.88
2023-01-13T06:45:32.184Z,70.48
2023-01-13T06:47:58.842Z,71.76
2023-01-13T06:50:25.840Z,71.31
2023-01-13T06:52:52.565Z,70.84
2023-01-13T06:55:19.204Z,70.76
2023-01-13T06:57:55.803Z,70.76
2023-01-13T07:00:23.153Z,70.54
2023-01-13T07:02:49.833Z,70.47
2023-01-13T07:05:16.541Z,70.58
2023-01-13T07:07:43.204Z,71.30
2023-01-13T07:10:10.781Z,70.61
2023-01-13T07:12:40.690Z,71.63
2023-01-13T07:15:07.808Z,72.97
2023-01-13T07:17:34.434Z,72.82
2023-01-13T07:20:01.069Z,73.15
2023-01-13T07:22:28.580Z,73.53
2023-01-13T07:24:55.225Z,73.13
2023-01-13T07:27:21.935Z,72.95
2023-01-13T07:29:48.589Z,73.06
2023-01-13T07:32:15.237Z,72.48
2023-01-13T07:34:41.987Z,73.33
2023-01-13T07:37:08.622Z,73.71
2023-01-13T07:39:35.321Z,73.38
2023-01-13T07:42:01.949Z,74.21
2023-01-13T07:44:28.576Z,74.53
2023-01-13T07:46:55.187Z,74.14
2023-01-13T07:49:21.813Z,74.52
2023-01-13T07:51:48.451Z,73.88
2023-01-13T07:54:15.104Z,74.19
2023-01-13T07:56:41.748Z,74.49
2023-01-13T07:59:08.403Z,74.86
2023-01-13T08:01:35.122Z,74.83
2023-01-13T08:04:01.890Z,74.11
2023-01-13T08:06:28.529Z,74.18
2023-01-13T08:08:55.207Z,74.90
2023-01-13T08:11:23.597Z,75.02
2023-01-13T08:13:50.450Z,74.18
2023-01-13T08:16:17.133Z,73.95
2023-01-13T08:18:43.879Z,74.26
2023-01-13T08:21:12.378Z,74.04
2023-01-13T08:23:39.621Z,74.37
2023-01-13T08:26:08.030Z,72.03
2023-01-13T08:28:34.657Z,72.65
2023-01-13T08:31:02.310Z,71.09
2023-01-13T08:33:29.103Z,71.79
2023-01-13T08:35:55.797Z,72.66
2023-01-13T08:38:22.562Z,72.68
2023-01-13T08:40:49.193Z,70.79
2023-01-13T08:43:15.854Z,71.92
2023-01-13T08:45:42.677Z,72.56
2023-01-13T08:48:09.392Z,72.60
2023-01-13T08:50:36.014Z,72.88
2023-01-13T08:53:02.668Z,73.63
2023-01-13T08:55:29.413Z,73.40
2023-01-13T08:58:06.367Z,74.13
2023-01-13T09:00:41.112Z,73.72
2023-01-13T09:03:07.758Z,73.97
2023-01-13T09:05:35.483Z,73.11
2023-01-13T09:08:02.138Z,73.93
2023-01-13T09:10:28.778Z,72.16
2023-01-13T09:12:55.424Z,71.40
2023-01-13T09:15:22.083Z,72.16
2023-01-13T09:17:48.725Z,72.82
2023-01-13T09:20:16.425Z,71.64
2023-01-13T09:22:43.120Z,72.62
2023-01-13T09:25:09.862Z,72.06
2023-01-13T09:27:36.547Z,70.59
2023-01-13T09:30:03.622Z,69.12
2023-01-13T09:32:30.267Z,70.23
2023-01-13T09:34:56.958Z,71.45
2023-01-13T09:37:23.641Z,70.79
2023-01-13T09:39:50.361Z,71.10
2023-01-13T09:42:41.950Z,71.01
2023-01-13T09:45:10.061Z,71.80
2023-01-13T09:48:00.440Z,71.27
2023-01-13T09:50:41.562Z,71.28
2023-01-13T09:53:12.733Z,70.41
2023-01-13T09:55:39.388Z,69.35
2023-01-13T09:58:13.881Z,69.89
2023-01-13T10:00:55.684Z,69.09
2023-01-13T10:03:32.121Z,68.49
2023-01-13T10:06:21.279Z,67.49
2023-01-13T10:08:48.131Z,68.49
2023-01-13T10:11:22.300Z,68.24
2023-01-13T10:13:55.727Z,67.68
2023-01-13T10:16:33.777Z,66.89
2023-01-13T10:19:12.318Z,66.68
2023-01-13T10:21:48.907Z,66.13
2023-01-13T10:24:21.407Z,66.26
2023-01-13T10:27:26.337Z,66.39
2023-01-13T10:29:52.980Z,66.26
2023-01-13T10:32:19.656Z,64.66
2023-01-13T10:34:49.851Z,66.13
2023-01-13T10:37:26.458Z,65.68
2023-01-13T10:39:57.404Z,62.66
2023-01-13T10:42:24.123Z,64.33
2023-01-13T10:44:53.778Z,64.04
2023-01-13T10:47:28.466Z,64.90
2023-01-13T10:49:59.221Z,64.31
2023-01-13T10:52:27.652Z,63.52
2023-01-13T10:54:54.615Z,63.34
2023-01-13T10:57:25.131Z,63.86
2023-01-13T10:59:51.791Z,64.36
2023-01-13T11:02:28.587Z,64.92
2023-01-13T11:04:55.113Z,65.09
2023-01-13T11:07:29.017Z,64.99
2023-01-13T11:10:24.660Z,65.74
2023-01-13T11:12:53.552Z,65.24
2023-01-13T11:15:22.175Z,66.58
2023-01-13T11:17:51.462Z,65.83
2023-01-13T11:20:21.586Z,65.86
2023-01-13T11:22:50.246Z,66.19
2023-01-13T11:25:25.119Z,65.36
2023-01-13T11:28:03.142Z,64.41
2023-01-13T11:30:45.598Z,62.42
2023-01-13T11:33:15.137Z,63.66
2023-01-13T11:35:45.778Z,63.87
2023-01-13T11:38:25.889Z,63.41
2023-01-13T11:40:52.539Z,64.36
2023-01-13T11:43:50.304Z,63.53
2023-01-13T11:46:16.992Z,62.16
2023-01-13T11:48:43.672Z,63.86
2023-01-13T11:51:38.592Z,63.27
2023-01-13T11:54:24.858Z,63.17
2023-01-13T11:57:13.285Z,62.22
2023-01-13T12:00:10.836Z,63.47
2023-01-13T12:02:52.778Z,64.38
2023-01-13T12:05:28.501Z,65.50
2023-01-13T12:08:10.564Z,65.78
2023-01-13T12:10:53.146Z,64.58
2023-01-13T12:13:34.292Z,65.52
2023-01-13T12:16:03.640Z,64.90
2023-01-13T12:18:35.853Z,64.92
2023-01-13T12:21:17.725Z,65.40
2023-01-13T12:24:13.078Z,65.12
2023-01-13T12:26:42.553Z,62.75
2023-01-13T12:29:16.629Z,63.32
2023-01-13T12:31:43.309Z,64.36
2023-01-13T12:34:28.965Z,64.12
2023-01-13T12:37:10.641Z,64.17
2023-01-13T12:39:48.691Z,63.99
2023-01-13T12:42:36.171Z,64.02
2023-01-13T12:45:11.898Z,64.31
2023-01-13T12:47:39.674Z,63.59
2023-01-13T12:50:24.191Z,62.73
2023-01-13T12:52:51.743Z,64.38
2023-01-13T12:55:25.664Z,61.04
2023-01-13T12:58:04.608Z,62.65
2023-01-13T13:00:58.759Z,62.31
2023-01-13T13:03:30.081Z,62.02
2023-01-13T13:06:08.591Z,63.47
2023-01-13T13:08:50.489Z,62.51
2023-01-13T13:11:34.581Z,63.26
2023-01-13T13:14:02.064Z,62.93
2023-01-13T13:16:28.564Z,60.38
2023-01-13T13:19:17.950Z,61.02
2023-01-13T13:22:12.577Z,60.07
2023-01-13T13:24:40.069Z,59.42
2023-01-13T13:27:35.136Z,60.66
2023-01-13T13:30:11.081Z,60.05
2023-01-13T13:33:14.866Z,60.49
2023-01-13T13:36:04.297Z,60.00
2023-01-13T13:38:42.934Z,59.74
2023-01-13T13:41:16.709Z,59.72
2023-01-13T13:43:45.094Z,59.69
2023-01-13T13:46:32.200Z,58.94
2023-01-13T13:48:58.870Z,59.92
2023-01-13T13:51:31.064Z,60.15
2023-01-13T13:53:58.237Z,59.90
2023-01-13T13:56:26.650Z,60.81
2023-01-13T13:58:53.425Z,60.29
2023-01-13T14:01:29.615Z,59.64
2023-01-13T14:04:22.854Z,59.72
2023-01-13T14:06:56.288Z,59.67
2023-01-13T14:09:23.773Z,59.24
2023-01-13T14:12:04.576Z,58.27
2023-01-13T14:14:31.236Z,56.90
2023-01-13T14:16:57.858Z,59.01
2023-01-13T14:19:32.224Z,60.04
2023-01-13T14:22:01.951Z,60.19
2023-01-13T14:24:29.389Z,60.12
2023-01-13T14:27:15.415Z,60.00
2023-01-13T14:29:42.086Z,59.53
2023-01-13T14:32:08.719Z,61.09
2023-01-13T14:34:35.372Z,61.26
2023-01-13T14:37:02.833Z,62.13
2023-01-13T14:39:38.873Z,62.47
2023-01-13T14:42:11.782Z,62.86
2023-01-13T14:44:38.895Z,63.91
2023-01-13T14:47:26.691Z,63.25
2023-01-13T14:49:54.331Z,62.98
2023-01-13T14:52:23.682Z,62.11
2023-01-13T14:54:51.768Z,61.06
2023-01-13T14:57:27.921Z,61.01
2023-01-13T15:00:16.591Z,59.71
2023-01-13T15:02:58.324Z,61.35
2023-01-13T15:05:27.627Z,61.40
2023-01-13T15:07:59.699Z,61.04
2023-01-13T15:10:31.206Z,61.70
2023-01-13T15:12:58.953Z,60.58
2023-01-13T15:15:32.817Z,61.23
2023-01-13T15:18:00.172Z,59.56
2023-01-13T15:20:27.306Z,60.52
2023-01-13T15:22:54.695Z,59.96
2023-01-13T15:25:21.670Z,60.99
2023-01-13T15:27:48.633Z,60.50
2023-01-13T15:30:25.133Z,60.65
2023-01-13T15:32:52.431Z,60.15
2023-01-13T15:35:19.524Z,59.13
2023-01-13T15:37:46.794Z,57.60
2023-01-13T15:40:21.483Z,57.82
2023-01-13T15:42:48.171Z,57.17
2023-01-13T15:45:14.836Z,59.26
2023-01-13T15:47:41.800Z,59.73
2023-01-13T15:50:26.236Z,59.58
2023-01-13T15:52:52.918Z,59.15
2023-01-13T15:55:19.721Z,57.78
2023-01-13T15:57:49.080Z,58.04
2023-01-13T16:00:17.720Z,59.58
2023-01-13T16:02:44.518Z,61.16
2023-01-13T16:05:11.282Z,63.40
2023-01-13T16:07:37.955Z,64.17
2023-01-13T16:10:18.581Z,63.67
2023-01-13T16:12:45.243Z,64.33
2023-01-13T16:15:16.331Z,64.68
2023-01-13T16:17:43.909Z,64.65
2023-01-13T16:20:17.218Z,65.04
2023-01-13T16:22:43.892Z,64.43
2023-01-13T16:25:16.070Z,64.50
2023-01-13T16:27:42.713Z,64.03
2023-01-13T16:30:29.520Z,63.87
2023-01-13T16:32:56.278Z,63.19
2023-01-13T16:35:23.306Z,62.67
2023-01-13T16:37:50.480Z,62.95
2023-01-13T16:40:25.797Z,63.16
2023-01-13T16:42:52.472Z,63.69
2023-01-13T16:45:19.240Z,63.77
2023-01-13T16:47:46.374Z,62.81
2023-01-13T16:50:23.231Z,63.81
2023-01-13T16:52:50.133Z,64.39
2023-01-13T16:55:17.054Z,64.28
2023-01-13T16:57:43.703Z,64.13
2023-01-13T17:00:11.703Z,65.23
2023-01-13T17:02:41.669Z,65.61
2023-01-13T17:05:10.556Z,65.55
2023-01-13T17:07:37.181Z,64.60
2023-01-13T17:10:04.724Z,63.64
2023-01-13T17:12:31.406Z,64.16
2023-01-13T17:14:58.064Z,64.95
2023-01-13T17:17:26.254Z,63.49
2023-01-13T17:19:53.308Z,62.46
2023-01-13T17:22:20.663Z,63.93
2023-01-13T17:24:48.775Z,63.14
2023-01-13T17:27:15.603Z,63.75
2023-01-13T17:29:42.245Z,64.49
2023-01-13T17:32:13.193Z,64.59
2023-01-13T17:34:40.880Z,63.96
2023-01-13T17:37:08.328Z,64.38
2023-01-13T17:39:34.982Z,64.77
2023-01-13T17:42:01.624Z,66.16
2023-01-13T17:44:28.416Z,65.73
2023-01-13T17:46:55.050Z,66.28
2023-01-13T17:49:21.703Z,66.45
2023-01-13T17:51:48.418Z,67.64
2023-01-13T17:54:15.073Z,67.29
2023-01-13T17:56:41.775Z,66.22
2023-01-13T17:59:10.518Z,66.25
2023-01-13T18:01:37.585Z,66.77
2023-01-13T18:04:04.478Z,67.37
2023-01-13T18:06:31.467Z,68.06
2023-01-13T18:08:58.835Z,67.84
2023-01-13T18:11:25.490Z,67.96
2023-01-13T18:13:53.297Z,67.23
2023-01-13T18:16:20.003Z,66.24
2023-01-13T18:18:47.723Z,66.21
2023-01-13T18:21:21.584Z,65.79
2023-01-13T18:23:48.208Z,65.22
2023-01-13T18:26:17.859Z,65.42
2023-01-13T18:28:44.503Z,64.90
2023-01-13T18:31:11.204Z,64.92
2023-01-13T18:33:37.873Z,65.08
2023-01-13T18:36:07.963Z,64.47
2023-01-13T18:38:34.627Z,64.85
2023-01-13T18:41:01.299Z,65.23
2023-01-13T18:43:27.940Z,65.49
2023-01-13T18:45:54.575Z,65.02
2023-01-13T18:48:21.263Z,64.65
2023-01-13T18:50:47.912Z,64.82
2023-01-13T18:53:14.582Z,64.54
2023-01-13T18:55:41.269Z,64.28
2023-01-13T18:58:07.954Z,64.80
2023-01-13T19:00:34.577Z,63.30
2023-01-13T19:05:32.869Z,62.13
2023-01-13T19:07:59.526Z,61.90
2023-01-13T19:10:26.176Z,61.55
2023-01-13T19:12:52.835Z,61.33
2023-01-13T19:15:19.529Z,61.18
2023-01-13T19:17:46.186Z,61.48
2023-01-13T19:20:12.842Z,60.90
2023-01-13T19:22:39.477Z,60.33
2023-01-13T19:25:06.167Z,60.52
2023-01-13T19:27:32.909Z,60.37
2023-01-13T19:29:59.558Z,61.32
2023-01-13T19:32:26.631Z,60.51
2023-01-13T19:34:53.278Z,59.86
2023-01-13T19:37:19.957Z,60.44
2023-01-13T19:39:46.633Z,60.20
2023-01-13T19:42:13.280Z,59.91
2023-01-13T19:44:39.902Z,58.57
2023-01-13T19:47:06.552Z,58.39
2023-01-13T19:49:33.540Z,57.92
2023-01-13T19:52:00.166Z,58.20
2023-01-13T19:54:26.776Z,58.10
2023-01-13T19:56:53.428Z,57.67
2023-01-13T19:59:20.040Z,57.51
2023-01-13T20:01:46.693Z,57.29
2023-01-13T20:04:13.359Z,57.41
2023-01-13T20:06:40.793Z,58.16
2023-01-13T20:09:07.465Z,58.56
2023-01-13T20:11:34.139Z,60.29
2023-01-13T20:14:00.910Z,61.74
2023-01-13T20:16:28.255Z,60.75
2023-01-13T20:18:55.136Z,61.51
2023-01-13T20:21:21.775Z,61.57
2023-01-13T20:23:51.707Z,61.12
2023-01-13T20:26:19.158Z,60.62
2023-01-13T20:28:46.561Z,59.96
2023-01-13T20:31:13.451Z,59.98
2023-01-13T20:33:40.166Z,60.39
2023-01-13T20:36:07.325Z,60.41
2023-01-13T20:38:33.996Z,60.94
2023-01-13T20:41:01.063Z,61.00
2023-01-13T20:43:27.683Z,61.64
2023-01-13T20:45:54.324Z,61.68
2023-01-13T20:48:20.970Z,62.28
2023-01-13T20:50:52.602Z,61.33
2023-01-13T20:53:19.377Z,61.39
2023-01-13T20:55:46.036Z,61.66
2023-01-13T20:58:12.676Z,61.16
2023-01-13T21:00:39.381Z,62.14
2023-01-13T21:03:06.062Z,61.45
2023-01-13T21:05:34.806Z,60.92
2023-01-13T21:08:01.437Z,59.54
2023-01-13T21:10:28.547Z,60.96
2023-01-13T21:12:55.199Z,59.97
2023-01-13T21:15:22.210Z,59.51
2023-01-13T21:17:50.613Z,59.75
2023-01-13T21:20:17.290Z,59.46
2023-01-13T21:22:45.375Z,58.93
2023-01-13T21:25:12.129Z,59.86
2023-01-13T21:27:38.829Z,59.30
2023-01-13T21:30:06.060Z,58.73
2023-01-13T21:32:32.700Z,59.10
2023-01-13T21:34:59.365Z,59.32
2023-01-13T21:37:25.996Z,59.37
2023-01-13T21:39:52.781Z,59.75
2023-01-13T21:42:19.421Z,59.62
2023-01-13T21:44:46.277Z,59.77
2023-01-13T21:47:16.572Z,59.68
2023-01-13T21:49:43.214Z,61.08
2023-01-13T21:52:11.228Z,61.15
2023-01-13T21:54:37.919Z,59.80
2023-01-13T21:57:04.557Z,60.47
2023-01-13T21:59:31.187Z,60.17
2023-01-13T22:02:23.729Z,60.02
2023-01-13T22:04:44.424Z,61.30
2023-01-13T22:07:11.040Z,60.85
2023-01-13T22:09:37.709Z,61.72
2023-01-13T22:12:04.697Z,60.97
2023-01-13T22:14:31.515Z,60.26
2023-01-13T22:16:58.154Z,61.42
2023-01-13T22:19:24.832Z,60.88
2023-01-13T22:21:51.553Z,61.15
2023-01-13T22:24:18.184Z,60.95
2023-01-13T22:26:44.812Z,60.64
2023-01-13T22:29:11.482Z,60.61
2023-01-13T22:31:38.183Z,59.64
2023-01-13T22:34:04.832Z,60.28
2023-01-13T22:36:31.553Z,60.72
2023-01-13T22:38:58.204Z,61.64
2023-01-13T22:41:24.852Z,62.97
2023-01-13T22:43:51.539Z,61.37
2023-01-13T22:46:18.241Z,61.20
2023-01-13T22:48:44.993Z,61.33
2023-01-13T22:51:13.323Z,61.85
2023-01-13T22:53:40.299Z,61.41
2023-01-13T22:56:07.324Z,61.55
2023-01-13T22:58:34.079Z,61.41
2023-01-13T23:01:08.359Z,60.95
2023-01-13T23:03:35.084Z,62.05
2023-01-13T23:06:01.761Z,62.58
2023-01-13T23:08:28.385Z,62.00
2023-01-13T23:11:03.745Z,61.88
2023-01-13T23:13:30.591Z,61.99
2023-01-13T23:16:01.790Z,62.17
2023-01-13T23:18:28.527Z,62.47
2023-01-13T23:20:55.210Z,62.79
2023-01-13T23:23:21.858Z,62.65
2023-01-13T23:25:49.536Z,62.13
2023-01-13T23:28:16.224Z,61.12
2023-01-13T23:30:42.889Z,61.53
2023-01-13T23:33:09.539Z,60.25
2023-01-13T23:35:36.174Z,60.35
2023-01-13T23:38:02.813Z,60.32
2023-01-13T23:40:29.444Z,60.05
2023-01-13T23:42:56.121Z,60.43
2023-01-13T23:45:22.755Z,60.97
2023-01-13T23:47:49.437Z,60.51
2023-01-13T23:50:16.302Z,61.52
2023-01-13T23:52:42.970Z,62.27
2023-01-13T23:55:09.618Z,61.70
2023-01-13T23:57:36.262Z,60.02
